Lagoa d'Anta, Brazil
Current Conditions -  °F | °C
As of 3:00 PM on Saturday 20 Dec 2014 (Local Time) from SBNT Reporting Station
Few Clouds Few Clouds  
Wind Chill: 84°   Ceiling: Unl
Heat Index: 88°   Visibility: 6mi
Dew Point: 70°   Wind: 16mph
Humidity: 62%   Direction: 110°ESE
Pressure: 29.88"   Gusts: NA
Location:  6.39°S, 35.6°W
Report Text: SBNT 201800Z 11014KT 9999 FEW025 29/21 Q1012
Loading
Personal Weather Stations






























Interactive Weather Map New forecast layout! Learn more

10-Day Weather Forecast

Advertisements
Track Severe Weather on mobile